Time;durP1;ratioP1;P1;durP2;ratioP2;P2;SDS_P1;SDS_P2;PMS_P1;PMS_P2;Temp;Humidity;BMP_temperature;BMP_pressure;BME280_temperature;BME280_humidity;BME280_pressure;Samples;Min_cycle;Max_cycle;Signal;HPM_P1;HPM_P2
2021/03/06 00:00:23;;;;;;;9.30;6.03;;;;;;;-2.83;100.00;97283.47;1011887;29;20432;-57
2021/03/06 00:00:56;;;;;;;8.63;6.13;;;;;;;-2.83;100.00;97276.50;1015837;29;20504;-58
2021/03/06 00:01:27;;;;;;;13.80;6.93;;;;;;;-2.87;100.00;97278.38;1015869;29;20024;-58
2021/03/06 00:01:58;;;;;;;9.18;6.10;;;;;;;-2.86;100.00;97280.09;1015694;29;20272;-58
2021/03/06 00:02:28;;;;;;;11.02;6.60;;;;;;;-2.86;100.00;97271.41;1007947;29;20027;-59
2021/03/06 00:02:59;;;;;;;9.20;6.15;;;;;;;-2.94;100.00;97268.28;1011887;29;20518;-57
2021/03/06 00:03:30;;;;;;;8.48;5.88;;;;;;;-2.92;100.00;97272.50;1015745;29;20028;-58
2021/03/06 00:04:00;;;;;;;8.02;5.90;;;;;;;-2.86;100.00;97274.88;1007830;29;20463;-57
2021/03/06 00:04:31;;;;;;;12.05;6.30;;;;;;;-2.95;100.00;97264.81;1011965;29;20016;-57
2021/03/06 00:05:02;;;;;;;11.70;6.55;;;;;;;-2.89;100.00;97274.13;1023710;29;20015;-57
2021/03/06 00:05:33;;;;;;;9.73;6.45;;;;;;;-2.89;100.00;97285.41;1011970;29;20040;-56
2021/03/06 00:06:04;;;;;;;8.88;6.15;;;;;;;-2.89;100.00;97274.13;1011752;29;20271;-57
2021/03/06 00:06:35;;;;;;;8.80;6.15;;;;;;;-2.93;100.00;97277.75;1015855;29;20027;-57
2021/03/06 00:07:05;;;;;;;8.30;6.07;;;;;;;-2.93;100.00;97275.16;1015805;29;20044;-58
2021/03/06 00:07:36;;;;;;;8.80;6.10;;;;;;;-2.91;100.00;97282.00;1015699;29;20501;-58
2021/03/06 00:08:07;;;;;;;8.55;6.05;;;;;;;-2.93;100.00;97273.41;1015660;29;20043;-58
2021/03/06 00:08:37;;;;;;;8.65;5.78;;;;;;;-2.90;100.00;97283.69;1011845;29;20129;-57
2021/03/06 00:09:08;;;;;;;10.18;6.30;;;;;;;-3.01;100.00;97265.09;1015801;29;20111;-56
2021/03/06 00:09:39;;;;;;;10.02;6.80;;;;;;;-2.94;100.00;97282.13;1019776;29;20123;-57
2021/03/06 00:10:11;;;;;;;10.32;6.30;;;;;;;-2.93;100.00;97286.41;1019640;29;20568;-56
2021/03/06 00:10:42;;;;;;;11.38;6.90;;;;;;;-2.94;100.00;97282.13;1008019;29;20027;-60
2021/03/06 00:11:13;;;;;;;10.23;6.30;;;;;;;-2.93;100.00;97282.97;1011940;29;20116;-57
2021/03/06 00:11:44;;;;;;;9.25;6.18;;;;;;;-2.94;100.00;97287.31;1019696;29;20594;-55
2021/03/06 00:12:15;;;;;;;8.95;6.43;;;;;;;-2.97;100.00;97282.22;1011757;29;20526;-57
2021/03/06 00:12:47;;;;;;;9.20;6.95;;;;;;;-2.99;100.00;97286.66;1015751;29;20035;-57
2021/03/06 00:13:18;;;;;;;10.38;6.50;;;;;;;-2.99;100.00;97283.22;1011917;29;20400;-57
2021/03/06 00:13:49;;;;;;;9.70;6.53;;;;;;;-2.99;100.00;97286.66;1015505;29;20035;-58
2021/03/06 00:14:19;;;;;;;11.13;6.40;;;;;;;-3.12;100.00;97270.66;1008025;29;20156;-57
2021/03/06 00:14:50;;;;;;;10.88;7.00;;;;;;;-3.02;100.00;97291.97;1008001;29;20029;-59
2021/03/06 00:15:24;;;;;;;12.25;6.53;;;;;;;-3.01;100.00;97280.69;1015711;29;20028;-57
2021/03/06 00:15:54;;;;;;;12.60;7.45;;;;;;;-3.00;100.00;97281.50;1015774;29;20029;-58
2021/03/06 00:16:26;;;;;;;9.60;6.97;;;;;;;-3.03;100.00;97282.47;1015549;29;20261;-57
2021/03/06 00:16:57;;;;;;;9.68;6.72;;;;;;;-3.00;100.00;97284.09;1015656;29;20529;-58
2021/03/06 00:17:28;;;;;;;10.27;6.45;;;;;;;-3.00;100.00;97282.34;1007978;29;20028;-56
2021/03/06 00:17:59;;;;;;;11.40;7.38;;;;;;;-2.98;100.00;97285.72;1011915;29;20029;-57
2021/03/06 00:18:29;;;;;;;13.02;6.55;;;;;;;-3.00;100.00;97281.50;1007834;29;20139;-57
2021/03/06 00:19:00;;;;;;;10.35;6.53;;;;;;;-2.97;100.00;97282.22;1019622;29;20023;-56
2021/03/06 00:19:31;;;;;;;11.35;7.03;;;;;;;-2.94;100.00;97281.28;1011859;29;20051;-57
2021/03/06 00:20:03;;;;;;;10.98;6.80;;;;;;;-2.93;100.00;97283.81;1008092;29;20276;-56
2021/03/06 00:20:34;;;;;;;9.40;6.80;;;;;;;-2.94;100.00;97283.88;1011719;29;20475;-58
2021/03/06 00:21:05;;;;;;;9.25;6.63;;;;;;;-2.96;100.00;97283.06;1011846;29;20292;-58
2021/03/06 00:21:36;;;;;;;8.85;6.57;;;;;;;-2.98;100.00;97287.50;1015765;29;20051;-57
2021/03/06 00:22:07;;;;;;;9.85;6.43;;;;;;;-2.99;100.00;97286.66;1011846;29;20261;-57
2021/03/06 00:22:37;;;;;;;11.00;7.10;;;;;;;-3.01;100.00;97285.88;1015561;29;20020;-57
2021/03/06 00:23:09;;;;;;;10.02;6.35;;;;;;;-3.05;100.00;97287.75;1020654;28;20043;-53
2021/03/06 00:23:39;;;;;;;9.80;6.40;;;;;;;-3.09;100.00;97277.50;1011652;29;20024;-54
2021/03/06 00:24:10;;;;;;;10.60;7.50;;;;;;;-3.05;100.00;97285.16;1011828;29;20028;-56
2021/03/06 00:24:41;;;;;;;9.48;6.75;;;;;;;-3.02;100.00;97278.97;1015769;29;20016;-57
2021/03/06 00:25:13;;;;;;;10.35;6.40;;;;;;;-2.99;100.00;97281.47;1012192;29;20031;-56
2021/03/06 00:25:44;;;;;;;9.77;6.18;;;;;;;-2.98;100.00;97284.91;1011814;29;20025;-57
2021/03/06 00:26:15;;;;;;;8.90;6.13;;;;;;;-2.98;100.00;97279.69;1007971;29;20016;-58
2021/03/06 00:26:46;;;;;;;8.75;6.15;;;;;;;-2.99;100.00;97283.22;1012070;29;20031;-57
2021/03/06 00:27:17;;;;;;;11.32;6.85;;;;;;;-3.03;100.00;97280.72;1021821;29;20200;-56
2021/03/06 00:27:48;;;;;;;10.15;6.05;;;;;;;-3.05;100.00;97282.53;1015710;29;20020;-55
2021/03/06 00:28:18;;;;;;;9.38;6.38;;;;;;;-3.06;100.00;97285.19;1007963;29;20013;-57
2021/03/06 00:28:49;;;;;;;10.80;6.30;;;;;;;-3.07;100.00;97278.28;1011750;29;20028;-57
2021/03/06 00:29:20;;;;;;;9.73;6.40;;;;;;;-3.15;100.00;97267.34;1019666;28;20024;-57
2021/03/06 00:29:51;;;;;;;8.43;6.20;;;;;;;-3.08;100.00;97280.06;1015783;29;20045;-59
2021/03/06 00:30:23;;;;;;;10.88;6.72;;;;;;;-3.09;100.00;97277.50;1015669;29;20256;-57
2021/03/06 00:30:53;;;;;;;11.85;7.15;;;;;;;-3.11;100.00;97280.16;1007848;29;20028;-57
2021/03/06 00:31:24;;;;;;;13.18;6.82;;;;;;;-3.11;100.00;97287.97;1015754;29;20020;-57
2021/03/06 00:31:55;;;;;;;9.43;6.55;;;;;;;-3.11;100.00;97285.38;1011916;29;20024;-57
2021/03/06 00:32:26;;;;;;;9.82;6.82;;;;;;;-3.11;100.00;97290.56;1011930;29;20099;-57
2021/03/06 00:32:56;;;;;;;10.13;6.75;;;;;;;-3.13;100.00;97289.78;1015599;29;20028;-56
2021/03/06 00:33:27;;;;;;;8.60;6.28;;;;;;;-3.17;100.00;97284.75;1015709;29;20016;-58
2021/03/06 00:33:58;;;;;;;10.23;6.45;;;;;;;-3.12;100.00;97288.00;1015562;29;20494;-56
2021/03/06 00:34:28;;;;;;;10.80;6.70;;;;;;;-3.11;100.00;97293.16;1015764;29;20415;-57
2021/03/06 00:34:59;;;;;;;9.77;5.82;;;;;;;-3.10;100.00;97286.19;1015593;29;20028;-58
2021/03/06 00:35:30;;;;;;;9.63;6.35;;;;;;;-3.13;100.00;97283.75;1015783;28;20016;-58
2021/03/06 00:36:01;;;;;;;8.75;6.57;;;;;;;-3.16;100.00;97282.09;1016721;29;20033;-56
2021/03/06 00:36:31;;;;;;;9.43;6.95;;;;;;;-3.15;100.00;97286.41;1020635;28;20015;-57
2021/03/06 00:37:02;;;;;;;10.57;6.90;;;;;;;-3.20;100.00;97280.53;1020374;28;20454;-57
2021/03/06 00:37:33;;;;;;;9.68;6.45;;;;;;;-3.19;100.00;97283.97;1012807;29;20135;-56
2021/03/06 00:38:04;;;;;;;10.10;6.40;;;;;;;-3.20;100.00;97277.94;1012755;29;20045;-56
2021/03/06 00:38:34;;;;;;;10.40;6.57;;;;;;;-3.19;100.00;97283.97;1012668;29;20372;-57
2021/03/06 00:39:05;;;;;;;9.35;6.32;;;;;;;-3.19;100.00;97278.78;1012837;29;20537;-59
2021/03/06 00:39:36;;;;;;;9.75;6.45;;;;;;;-3.20;100.00;97277.94;1020537;29;20110;-57
2021/03/06 00:40:08;;;;;;;8.43;5.93;;;;;;;-3.19;100.00;97279.59;1020478;29;20110;-57
2021/03/06 00:40:39;;;;;;;11.25;7.22;;;;;;;-3.23;100.00;97281.47;1020559;29;20039;-58
2021/03/06 00:41:10;;;;;;;11.40;6.28;;;;;;;-3.24;100.00;97285.00;1020269;29;20513;-54
2021/03/06 00:41:40;;;;;;;11.82;7.10;;;;;;;-3.21;100.00;97278.81;1016484;29;20024;-57
2021/03/06 00:42:11;;;;;;;9.15;6.13;;;;;;;-3.26;100.00;97271.22;1020558;29;20515;-56
2021/03/06 00:42:42;;;;;;;10.48;6.82;;;;;;;-3.24;100.00;97285.00;1016563;29;20074;-58
2021/03/06 00:43:13;;;;;;;12.90;6.38;;;;;;;-3.22;100.00;97277.16;1008588;29;20017;-56
2021/03/06 00:43:43;;;;;;;10.77;7.28;;;;;;;-3.22;100.00;97275.38;1012361;29;20060;-58
2021/03/06 00:44:14;;;;;;;11.02;6.72;;;;;;;-3.22;100.00;97278.00;1012568;29;20101;-57
2021/03/06 00:44:45;;;;;;;12.30;7.10;;;;;;;-3.23;100.00;97286.66;1016572;29;20036;-56
2021/03/06 00:45:15;;;;;;;10.80;6.80;;;;;;;-3.20;100.00;97290.06;1008672;29;20040;-57
2021/03/06 00:45:46;;;;;;;9.88;6.60;;;;;;;-3.23;100.00;97291.03;1008712;29;20025;-58
2021/03/06 00:46:17;;;;;;;11.48;6.70;;;;;;;-3.26;100.00;97294.59;1012606;29;20418;-57
2021/03/06 00:46:47;;;;;;;9.63;6.78;;;;;;;-3.29;100.00;97293.84;1012745;29;20024;-57
2021/03/06 00:47:18;;;;;;;10.25;6.50;;;;;;;-3.29;100.00;97294.72;1016458;29;20020;-58
2021/03/06 00:47:49;;;;;;;9.38;6.63;;;;;;;-3.29;100.00;97291.25;1024135;28;20469;-57
2021/03/06 00:48:19;;;;;;;10.20;6.70;;;;;;;-3.30;100.00;97289.56;1016559;29;20095;-57
2021/03/06 00:48:50;;;;;;;11.88;6.82;;;;;;;-3.28;100.00;97295.53;1016476;29;20012;-58
2021/03/06 00:49:21;;;;;;;10.18;6.38;;;;;;;-3.26;100.00;97299.78;1020370;28;20398;-57
2021/03/06 00:49:52;;;;;;;9.10;6.55;;;;;;;-3.27;100.00;97289.47;1016365;29;20095;-57
2021/03/06 00:50:29;;;;;;;11.95;7.22;;;;;;;-3.29;100.00;97294.72;1020411;28;20840;-58
2021/03/06 00:51:00;;;;;;;13.07;6.80;;;;;;;-3.30;100.00;97300.78;1012615;29;20048;-56
2021/03/06 00:51:31;;;;;;;8.13;5.93;;;;;;;-3.29;100.00;97297.31;1012524;29;20013;-56
2021/03/06 00:52:02;;;;;;;9.35;6.50;;;;;;;-3.27;100.00;97299.84;1016386;29;20024;-57
2021/03/06 00:52:32;;;;;;;10.43;7.57;;;;;;;-3.28;100.00;97293.78;1016483;29;20513;-59
2021/03/06 00:53:03;;;;;;;9.23;6.60;;;;;;;-3.28;100.00;97290.34;1012601;29;20374;-57
2021/03/06 00:53:34;;;;;;;11.20;6.78;;;;;;;-3.28;100.00;97292.94;1008547;29;20049;-59
2021/03/06 00:54:05;;;;;;;9.73;6.60;;;;;;;-3.26;100.00;97297.19;1012408;29;20013;-56
2021/03/06 00:54:36;;;;;;;9.07;6.78;;;;;;;-3.34;100.00;97278.44;1016527;29;20788;-57
2021/03/06 00:55:07;;;;;;;9.80;6.47;;;;;;;-3.28;100.00;97296.38;1020376;29;20067;-57
2021/03/06 00:55:39;;;;;;;10.52;6.95;;;;;;;-3.29;100.00;97291.25;1016545;29;20498;-57
2021/03/06 00:56:10;;;;;;;11.25;7.10;;;;;;;-3.33;100.00;97300.91;1008486;29;20076;-55
2021/03/06 00:56:40;;;;;;;10.25;6.63;;;;;;;-3.35;100.00;97300.13;1004861;29;20318;-57
2021/03/06 00:57:11;;;;;;;9.75;6.72;;;;;;;-3.34;100.00;97298.38;1016445;29;20020;-57
2021/03/06 00:57:42;;;;;;;9.60;6.75;;;;;;;-3.32;100.00;97299.16;1016507;29;20012;-58
2021/03/06 00:58:13;;;;;;;9.77;6.97;;;;;;;-3.29;100.00;97288.66;1012388;29;20139;-56
2021/03/06 00:58:43;;;;;;;9.68;6.80;;;;;;;-3.23;100.00;97293.63;1016482;29;20068;-55
2021/03/06 00:59:14;;;;;;;10.90;6.60;;;;;;;-3.26;100.00;97304.13;1008601;29;20021;-59
2021/03/06 00:59:45;;;;;;;10.13;6.53;;;;;;;-3.29;100.00;97294.72;1016447;29;20020;-54
2021/03/06 01:00:16;;;;;;;8.93;6.35;;;;;;;-3.32;100.00;97297.41;1008540;29;20032;-57
2021/03/06 01:00:47;;;;;;;11.82;6.55;;;;;;;-3.31;100.00;97287.88;1012558;29;20466;-56
2021/03/06 01:01:18;;;;;;;10.85;6.80;;;;;;;-3.31;100.00;97288.72;1024245;29;20254;-57
2021/03/06 01:01:48;;;;;;;8.77;6.65;;;;;;;-3.32;100.00;97284.44;1012546;29;20016;-57
2021/03/06 01:02:19;;;;;;;10.27;6.38;;;;;;;-3.31;100.00;97291.31;1012349;29;20017;-57
2021/03/06 01:02:50;;;;;;;9.48;6.85;;;;;;;-3.32;100.00;97288.78;1016347;29;20024;-57
2021/03/06 01:03:20;;;;;;;10.10;7.10;;;;;;;-3.34;100.00;97291.44;1016370;29;20019;-56
2021/03/06 01:03:51;;;;;;;12.65;6.72;;;;;;;-3.34;100.00;97283.66;1016328;29;20043;-57
2021/03/06 01:04:22;;;;;;;9.90;6.90;;;;;;;-3.33;100.00;97289.69;1016327;29;20020;-57
2021/03/06 01:04:53;;;;;;;11.70;6.40;;;;;;;-3.34;100.00;97293.19;1012523;29;20042;-57
2021/03/06 01:05:23;;;;;;;10.40;7.47;;;;;;;-3.35;100.00;97287.13;1020316;29;20012;-56
2021/03/06 01:05:54;;;;;;;10.65;6.93;;;;;;;-3.38;100.00;97289.84;1016464;29;20020;-57
2021/03/06 01:06:25;;;;;;;12.15;6.57;;;;;;;-3.38;100.00;97289.84;1012380;29;20027;-55
2021/03/06 01:06:55;;;;;;;9.93;6.60;;;;;;;-3.37;100.00;97288.94;1020364;29;20437;-56
2021/03/06 01:07:26;;;;;;;10.43;7.22;;;;;;;-3.37;100.00;97281.16;1016449;29;20280;-57
2021/03/06 01:07:57;;;;;;;19.30;8.82;;;;;;;-3.37;100.00;97288.94;1016318;29;20447;-57
2021/03/06 01:08:28;;;;;;;9.77;6.47;;;;;;;-3.38;100.00;97289.00;1020188;29;20030;-55
2021/03/06 01:08:58;;;;;;;11.05;6.82;;;;;;;-3.51;100.00;97270.44;1016401;29;20044;-56
2021/03/06 01:09:29;;;;;;;10.00;6.95;;;;;;;-3.47;100.00;97274.59;1012468;29;20423;-57
2021/03/06 01:10:00;;;;;;;11.90;7.10;;;;;;;-3.44;100.00;97283.13;1004904;29;20056;-55
2021/03/06 01:10:33;;;;;;;9.43;6.72;;;;;;;-3.54;100.00;97268.78;1016251;29;20036;-56
2021/03/06 01:11:04;;;;;;;12.35;7.50;;;;;;;-3.44;100.00;97285.72;1008614;29;20272;-57
2021/03/06 01:11:35;;;;;;;12.63;7.70;;;;;;;-3.43;100.00;97281.38;1008657;29;20292;-56
2021/03/06 01:12:05;;;;;;;9.35;6.38;;;;;;;-3.45;100.00;97280.59;1020400;29;20449;-57
2021/03/06 01:12:36;;;;;;;9.25;6.88;;;;;;;-3.46;100.00;97284.94;1020184;29;20406;-55
2021/03/06 01:13:07;;;;;;;10.52;6.55;;;;;;;-3.46;100.00;97278.91;1016401;29;20020;-58
2021/03/06 01:13:38;;;;;;;10.52;6.65;;;;;;;-3.46;100.00;97278.91;1016146;29;20421;-55
2021/03/06 01:14:08;;;;;;;11.02;7.45;;;;;;;-3.46;100.00;97273.72;1020403;29;20046;-53
2021/03/06 01:14:39;;;;;;;9.27;6.25;;;;;;;-3.46;100.00;97268.53;1020220;28;20020;-58
2021/03/06 01:15:11;;;;;;;11.50;7.10;;;;;;;-3.48;100.00;97271.16;1020340;29;20027;-57
2021/03/06 01:15:42;;;;;;;11.45;6.88;;;;;;;-3.48;100.00;97267.75;1016443;29;20833;-58
2021/03/06 01:16:13;;;;;;;11.55;6.90;;;;;;;-3.49;100.00;97271.22;1008601;29;20265;-56
2021/03/06 01:16:43;;;;;;;14.23;7.22;;;;;;;-3.49;100.00;97271.22;1016320;29;20024;-57
2021/03/06 01:17:14;;;;;;;10.98;6.97;;;;;;;-3.51;100.00;97268.69;1012461;29;20039;-57
2021/03/06 01:17:45;;;;;;;10.75;7.32;;;;;;;-3.52;100.00;97268.72;1020376;29;20027;-58
2021/03/06 01:18:15;;;;;;;11.75;7.50;;;;;;;-3.50;100.00;97272.13;1008605;29;20422;-57
2021/03/06 01:18:46;;;;;;;12.07;7.78;;;;;;;-3.52;100.00;97271.34;1016375;29;20016;-56
2021/03/06 01:19:17;;;;;;;9.93;7.32;;;;;;;-3.61;100.00;97249.16;1020364;29;20118;-56
2021/03/06 01:19:47;;;;;;;12.20;7.78;;;;;;;-3.52;100.00;97268.72;1024409;28;20023;-58
2021/03/06 01:20:18;;;;;;;9.65;6.78;;;;;;;-3.54;100.00;97268.78;1016352;29;20473;-55
2021/03/06 01:20:49;;;;;;;13.40;7.35;;;;;;;-3.53;100.00;97264.47;1012397;29;20021;-57
2021/03/06 01:21:19;;;;;;;10.73;6.93;;;;;;;-3.54;100.00;97265.34;1016317;29;20525;-56
2021/03/06 01:21:50;;;;;;;10.82;7.25;;;;;;;-3.55;100.00;97261.06;1016511;29;20043;-57
2021/03/06 01:22:21;;;;;;;10.25;7.00;;;;;;;-3.62;100.00;97253.50;1016286;29;20032;-56
2021/03/06 01:22:52;;;;;;;12.10;6.47;;;;;;;-3.56;100.00;97264.56;1004410;29;20033;-58
2021/03/06 01:23:23;;;;;;;14.70;7.18;;;;;;;-3.58;100.00;97268.97;1012462;29;20017;-58
2021/03/06 01:23:53;;;;;;;9.95;7.15;;;;;;;-3.58;100.00;97266.38;1004618;29;20396;-58
2021/03/06 01:24:25;;;;;;;10.25;7.15;;;;;;;-3.58;100.00;97266.38;1012388;29;20107;-55
2021/03/06 01:24:55;;;;;;;10.52;6.75;;;;;;;-3.57;100.00;97268.06;1016243;29;20031;-59
2021/03/06 01:25:26;;;;;;;11.68;7.25;;;;;;;-3.57;100.00;97263.72;1020258;29;20262;-56
2021/03/06 01:25:57;;;;;;;16.67;7.38;;;;;;;-3.60;100.00;97262.06;1020361;29;20026;-57
2021/03/06 01:26:28;;;;;;;12.85;7.80;;;;;;;-3.58;100.00;97266.38;1016307;29;20530;-56
2021/03/06 01:26:59;;;;;;;10.55;7.25;;;;;;;-3.61;100.00;97265.56;1012358;29;20028;-57
2021/03/06 01:27:30;;;;;;;13.05;7.38;;;;;;;-3.60;100.00;97262.06;1008450;29;20052;-57
2021/03/06 01:28:01;;;;;;;10.98;7.25;;;;;;;-3.60;100.00;97267.28;1008489;29;20679;-57
2021/03/06 01:28:32;;;;;;;11.23;6.93;;;;;;;-3.60;100.00;97267.28;1004799;29;20443;-58
2021/03/06 01:29:03;;;;;;;12.23;7.18;;;;;;;-3.71;100.00;97250.38;1012481;29;20196;-58
2021/03/06 01:29:33;;;;;;;10.32;6.45;;;;;;;-3.65;100.00;97253.59;1008573;29;20188;-56
2021/03/06 01:30:05;;;;;;;10.43;6.63;;;;;;;-3.64;100.00;97257.03;1012451;29;20076;-58
2021/03/06 01:30:36;;;;;;;10.40;6.72;;;;;;;-3.65;100.00;97258.81;1012479;29;20119;-57
2021/03/06 01:31:07;;;;;;;11.98;6.93;;;;;;;-3.68;100.00;97250.28;1012374;29;20691;-58
2021/03/06 01:31:38;;;;;;;10.15;6.68;;;;;;;-3.66;100.00;97256.25;1016346;29;20024;-58
2021/03/06 01:32:09;;;;;;;10.50;6.88;;;;;;;-3.72;100.00;97249.56;1016277;29;20292;-53
2021/03/06 01:32:40;;;;;;;12.15;7.50;;;;;;;-3.67;100.00;97260.63;1008609;29;20364;-59
2021/03/06 01:33:11;;;;;;;11.68;6.75;;;;;;;-3.67;100.00;97258.03;1016225;29;20414;-57
2021/03/06 01:33:42;;;;;;;14.15;7.40;;;;;;;-3.72;100.00;97249.56;1019985;29;20267;-58
2021/03/06 01:34:13;;;;;;;10.60;7.32;;;;;;;-3.70;100.00;97254.69;1012359;29;20512;-55
2021/03/06 01:34:44;;;;;;;10.82;7.60;;;;;;;-3.75;100.00;97241.03;1020294;29;20023;-57
2021/03/06 01:35:14;;;;;;;13.93;7.32;;;;;;;-3.72;100.00;97253.91;1016297;29;20111;-58
2021/03/06 01:35:45;;;;;;;11.55;7.53;;;;;;;-3.74;100.00;97253.97;1012317;29;20119;-57
2021/03/06 01:36:16;;;;;;;12.15;7.50;;;;;;;-3.74;100.00;97251.38;1016261;29;20023;-57
2021/03/06 01:36:47;;;;;;;9.60;7.00;;;;;;;-3.75;100.00;97254.00;1016302;29;20506;-58
2021/03/06 01:37:18;;;;;;;9.60;6.90;;;;;;;-3.84;100.00;97239.63;1008525;29;20077;-59
2021/03/06 01:37:49;;;;;;;10.60;7.00;;;;;;;-3.76;100.00;97257.50;1016203;29;20099;-56
2021/03/06 01:38:20;;;;;;;10.95;6.78;;;;;;;-3.77;100.00;97254.06;1008508;29;20033;-56
2021/03/06 01:38:50;;;;;;;11.85;7.22;;;;;;;-3.76;100.00;97252.31;1016339;29;20276;-56
2021/03/06 01:39:22;;;;;;;10.77;7.43;;;;;;;-3.78;100.00;97254.94;1008551;29;20057;-57
2021/03/06 01:39:53;;;;;;;10.90;7.32;;;;;;;-3.78;100.00;97252.34;1012307;29;20028;-57
2021/03/06 01:40:34;;;;;;;10.23;6.25;;;;;;;-3.78;100.00;97262.72;1008558;29;20249;-57
2021/03/06 01:41:05;;;;;;;10.80;7.28;;;;;;;-3.79;100.00;97250.69;1012484;29;20261;-56
2021/03/06 01:41:35;;;;;;;12.82;7.20;;;;;;;-3.81;100.00;97249.91;1012339;29;20261;-57
2021/03/06 01:42:07;;;;;;;12.00;7.72;;;;;;;-3.77;100.00;97258.41;1016260;29;20027;-59
2021/03/06 01:42:39;;;;;;;10.82;6.72;;;;;;;-3.82;100.00;97254.22;1012348;29;20029;-58
2021/03/06 01:43:11;;;;;;;10.90;7.65;;;;;;;-3.77;100.00;97261.00;1004521;29;20503;-60
2021/03/06 01:43:42;;;;;;;14.48;7.88;;;;;;;-3.76;100.00;97258.34;1012762;29;20292;-57
2021/03/06 01:44:13;;;;;;;12.23;7.60;;;;;;;-3.77;100.00;97253.22;1012317;29;20320;-55
2021/03/06 01:44:44;;;;;;;11.32;7.53;;;;;;;-3.78;100.00;97257.53;1004663;29;20022;-57
2021/03/06 01:45:14;;;;;;;10.45;6.90;;;;;;;-3.79;100.00;97255.88;1008492;29;20108;-58
2021/03/06 01:45:45;;;;;;;11.75;7.25;;;;;;;-3.78;100.00;97257.53;1020124;29;20028;-57
2021/03/06 01:46:16;;;;;;;12.90;7.28;;;;;;;-3.79;100.00;97255.88;1012412;29;20016;-56
2021/03/06 01:46:47;;;;;;;10.18;7.28;;;;;;;-3.80;100.00;97251.56;1015967;29;20039;-58
2021/03/06 01:47:18;;;;;;;11.18;7.53;;;;;;;-3.87;100.00;97242.31;1007783;29;20029;-57
2021/03/06 01:47:49;;;;;;;11.25;7.35;;;;;;;-3.80;100.00;97251.56;1004357;29;20045;-57
2021/03/06 01:48:20;;;;;;;10.70;6.88;;;;;;;-3.77;100.00;97258.41;1000864;29;20274;-57
2021/03/06 01:48:51;;;;;;;12.82;7.40;;;;;;;-3.80;100.00;97259.34;1008534;29;20081;-58
2021/03/06 01:49:21;;;;;;;10.73;7.05;;;;;;;-3.80;100.00;97259.34;1008493;29;20029;-58
2021/03/06 01:49:52;;;;;;;10.75;7.30;;;;;;;-3.81;100.00;97252.50;1016322;29;20123;-57
2021/03/06 01:50:36;;;;;;;12.57;7.47;;;;;;;-3.83;100.00;97254.25;1008372;29;20024;-57
2021/03/06 01:51:07;;;;;;;10.07;6.88;;;;;;;-3.83;100.00;97255.13;1004820;29;20025;-57
2021/03/06 01:51:38;;;;;;;12.05;7.57;;;;;;;-3.89;100.00;97251.91;1012329;29;20612;-57
2021/03/06 01:52:09;;;;;;;14.60;7.07;;;;;;;-3.83;100.00;97259.47;1012203;29;20025;-53
2021/03/06 01:52:39;;;;;;;12.38;7.80;;;;;;;-3.95;100.00;97240.00;1012314;29;20635;-56
2021/03/06 01:53:12;;;;;;;10.85;6.90;;;;;;;-3.83;100.00;97257.72;1016173;29;20046;-57
2021/03/06 01:53:43;;;;;;;16.73;7.68;;;;;;;-3.85;100.00;97259.53;1016045;29;20439;-57
2021/03/06 01:54:14;;;;;;;14.60;7.50;;;;;;;-3.82;100.00;97254.22;1008325;29;20290;-56
2021/03/06 01:54:44;;;;;;;11.15;7.10;;;;;;;-3.81;100.00;97262.88;1008472;29;20025;-56
2021/03/06 01:55:15;;;;;;;12.52;7.40;;;;;;;-3.82;100.00;97258.56;1016255;28;20030;-57
2021/03/06 01:55:47;;;;;;;12.93;7.82;;;;;;;-3.83;100.00;97256.84;1016253;29;20016;-57
2021/03/06 01:56:18;;;;;;;11.32;7.15;;;;;;;-3.84;100.00;97256.03;1008306;29;20586;-57
2021/03/06 01:56:49;;;;;;;10.60;7.18;;;;;;;-3.81;100.00;97257.69;1016324;28;20264;-57
2021/03/06 01:57:19;;;;;;;12.38;7.07;;;;;;;-3.81;100.00;97260.28;1016225;29;20379;-58
2021/03/06 01:57:50;;;;;;;11.20;7.22;;;;;;;-3.85;100.00;97248.28;1012459;29;20256;-58
2021/03/06 01:58:21;;;;;;;11.40;7.57;;;;;;;-3.78;100.00;97260.13;1008334;29;20053;-59
2021/03/06 01:58:52;;;;;;;10.43;6.85;;;;;;;-3.80;100.00;97257.63;1008526;29;20017;-57
2021/03/06 01:59:22;;;;;;;10.45;7.10;;;;;;;-3.79;100.00;97254.09;1004980;29;20032;-57
2021/03/06 01:59:53;;;;;;;11.43;7.65;;;;;;;-3.77;100.00;97258.41;1016255;29;20398;-58
2021/03/06 02:00:24;;;;;;;11.15;7.30;;;;;;;-3.77;100.00;97253.22;1008343;29;20063;-57
2021/03/06 02:00:55;;;;;;;14.35;7.57;;;;;;;-3.80;100.00;97256.75;1012357;29;20025;-57
2021/03/06 02:01:25;;;;;;;14.52;7.00;;;;;;;-3.82;100.00;97258.56;1016171;29;20027;-58
2021/03/06 02:01:56;;;;;;;10.45;6.88;;;;;;;-3.81;100.00;97257.69;1008515;29;20025;-56
2021/03/06 02:02:27;;;;;;;10.32;7.05;;;;;;;-3.82;100.00;97255.97;1008351;29;20506;-58
2021/03/06 02:02:58;;;;;;;12.20;7.22;;;;;;;-3.82;100.00;97259.41;1008370;29;20037;-57
2021/03/06 02:03:28;;;;;;;10.70;7.15;;;;;;;-3.82;100.00;97256.81;1012183;29;20192;-60
2021/03/06 02:03:59;;;;;;;11.50;7.72;;;;;;;-3.82;100.00;97261.16;1008337;29;20029;-58
2021/03/06 02:04:30;;;;;;;10.63;7.28;;;;;;;-3.84;100.00;97250.84;1008339;29;20061;-58
2021/03/06 02:05:01;;;;;;;11.65;7.13;;;;;;;-3.82;100.00;97253.38;1020092;29;20236;-56
2021/03/06 02:05:31;;;;;;;10.57;7.30;;;;;;;-3.83;100.00;97255.13;1012279;29;20031;-59
2021/03/06 02:06:03;;;;;;;10.75;7.30;;;;;;;-3.83;100.00;97255.13;1016230;29;20030;-57
2021/03/06 02:06:33;;;;;;;10.85;7.18;;;;;;;-3.82;100.00;97253.38;1012260;29;20027;-55
2021/03/06 02:07:04;;;;;;;10.05;7.10;;;;;;;-3.83;100.00;97254.25;1008363;29;20326;-58
2021/03/06 02:07:35;;;;;;;11.98;7.63;;;;;;;-3.84;100.00;97253.44;1012202;29;20024;-57
2021/03/06 02:08:06;;;;;;;12.70;7.63;;;;;;;-3.84;100.00;97253.44;1012346;29;20542;-58
2021/03/06 02:08:36;;;;;;;11.60;7.32;;;;;;;-3.87;100.00;97253.53;1008473;29;20033;-58
2021/03/06 02:09:07;;;;;;;11.63;7.32;;;;;;;-3.87;100.00;97250.09;1012333;29;20025;-57
2021/03/06 02:09:38;;;;;;;11.90;6.95;;;;;;;-3.89;100.00;97250.16;1012277;29;20021;-56
2021/03/06 02:10:10;;;;;;;10.88;6.93;;;;;;;-3.89;100.00;97246.72;1012386;29;20265;-54
2021/03/06 02:10:42;;;;;;;9.93;6.78;;;;;;;-3.89;100.00;97257.09;1016257;29;20091;-56
2021/03/06 02:11:32;;;;;;;12.50;7.20;;;;;;;-3.89;100.00;97254.50;1012227;29;20264;-56
2021/03/06 02:12:11;;;;;;;10.48;7.20;;;;;;;-3.89;100.00;97252.75;1012277;29;20434;-56
2021/03/06 02:12:47;;;;;;;11.50;7.03;;;;;;;-3.92;100.00;97249.41;1012239;29;20356;-59
2021/03/06 02:13:38;;;;;;;10.45;7.28;;;;;;;-3.91;100.00;97251.97;1016099;29;20754;-57
2021/03/06 02:14:19;;;;;;;10.93;6.55;;;;;;;-3.93;100.00;97252.94;1020129;29;20267;-54
2021/03/06 02:15:09;;;;;;;12.45;7.43;;;;;;;-4.06;100.00;97237.81;1016156;29;20279;-58
2021/03/06 02:15:52;;;;;;;10.52;6.68;;;;;;;-3.99;100.00;97253.97;1020101;29;20260;-59
2021/03/06 02:16:41;;;;;;;11.32;7.22;;;;;;;-3.99;100.00;97252.25;1012278;29;20261;-56
2021/03/06 02:17:17;;;;;;;10.32;6.78;;;;;;;-4.00;100.00;97247.94;1012340;29;20265;-57
2021/03/06 02:18:06;;;;;;;13.20;7.63;;;;;;;-3.99;100.00;97251.38;1016227;29;20115;-57
2021/03/06 02:18:41;;;;;;;9.25;6.18;;;;;;;-4.00;100.00;97255.72;1012164;29;20265;-56
2021/03/06 02:19:24;;;;;;;11.15;6.65;;;;;;;-4.00;100.00;97253.13;1008274;29;20029;-58
2021/03/06 02:20:14;;;;;;;13.25;7.25;;;;;;;-4.02;100.00;97254.09;1012249;29;20268;-57
2021/03/06 02:20:46;;;;;;;11.80;6.78;;;;;;;-4.02;100.00;97248.91;1012463;29;20264;-57
2021/03/06 02:21:29;;;;;;;12.00;7.18;;;;;;;-4.04;100.00;97248.97;1008198;29;20261;-57
2021/03/06 02:22:21;;;;;;;13.82;7.05;;;;;;;-4.03;100.00;97247.22;1012286;29;20290;-59
2021/03/06 02:23:02;;;;;;;13.25;7.15;;;;;;;-4.03;100.00;97248.03;1009920;29;20268;-57
2021/03/06 02:23:49;;;;;;;10.55;6.93;;;;;;;-4.02;100.00;97248.91;1015862;29;20283;-58
2021/03/06 02:24:39;;;;;;;11.65;7.00;;;;;;;-4.01;100.00;97237.63;1008342;29;20265;-57
2021/03/06 02:25:28;;;;;;;13.30;7.15;;;;;;;-4.05;100.00;97242.06;1004553;29;20636;-56
2021/03/06 02:26:18;;;;;;;16.63;7.85;;;;;;;-4.08;100.00;97242.16;1005600;29;20269;-55
2021/03/06 02:27:08;;;;;;;12.65;7.40;;;;;;;-4.09;100.00;97243.09;1010711;29;20021;-56
2021/03/06 02:27:55;;;;;;;13.23;7.22;;;;;;;-4.09;100.00;97240.50;1013287;29;20273;-58
2021/03/06 02:28:38;;;;;;;11.20;7.25;;;;;;;-4.10;100.00;97236.19;1012280;29;20280;-59